Time;durP1;ratioP1;P1;durP2;ratioP2;P2;SDS_P1;SDS_P2;PMS_P1;PMS_P2;Temp;Humidity;BMP_temperature;BMP_pressure;BME280_temperature;BME280_humidity;BME280_pressure;Samples;Min_cycle;Max_cycle;Signal;HPM_P1;HPM_P2
2024/01/21 00:03:12;;;;;;;3.43;2.20;;;3.40;69.60;;;;;;10402759;28;20223;-62
2024/01/21 00:08:16;;;;;;;2.30;1.93;;;3.50;75.30;;;;;;10400371;28;20202;-62
2024/01/21 00:13:21;;;;;;;2.73;1.70;;;3.50;69.50;;;;;;10414253;28;20300;-61
2024/01/21 00:18:25;;;;;;;3.03;1.70;;;3.50;72.20;;;;;;10411697;28;20221;-62
2024/01/21 00:23:28;;;;;;;2.40;1.80;;;3.50;76.00;;;;;;10406739;28;20634;-62
2024/01/21 00:28:33;;;;;;;2.33;1.67;;;3.50;76.90;;;;;;10411559;28;20537;-60
2024/01/21 00:33:37;;;;;;;3.93;1.70;;;3.60;77.80;;;;;;10411694;28;20298;-62
2024/01/21 00:38:41;;;;;;;2.37;1.50;;;3.60;78.30;;;;;;10410934;28;20212;-62
2024/01/21 00:43:46;;;;;;;2.70;1.60;;;3.70;79.60;;;;;;10407119;28;20213;-62
2024/01/21 00:48:50;;;;;;;3.40;1.70;;;3.70;77.60;;;;;;10409843;28;20195;-62
2024/01/21 00:53:54;;;;;;;3.37;2.30;;;3.70;79.40;;;;;;10406330;28;20283;-62
2024/01/21 00:58:59;;;;;;;2.33;2.00;;;3.70;76.00;;;;;;10410034;28;20233;-61
2024/01/21 01:04:02;;;;;;;2.53;1.90;;;3.80;78.60;;;;;;10409170;28;20232;-63
2024/01/21 01:09:06;;;;;;;3.20;2.00;;;3.80;74.10;;;;;;10406672;28;20210;-63
2024/01/21 01:14:11;;;;;;;3.40;2.40;;;3.80;75.20;;;;;;10408711;28;20233;-63
2024/01/21 01:19:15;;;;;;;3.27;2.20;;;3.90;76.70;;;;;;10404827;28;20237;-62
2024/01/21 01:24:19;;;;;;;3.80;2.57;;;3.90;77.60;;;;;;10405924;28;20703;-62
2024/01/21 01:29:24;;;;;;;3.13;2.37;;;3.90;79.40;;;;;;10407155;28;20232;-63
2024/01/21 01:34:28;;;;;;;3.10;2.47;;;3.90;77.80;;;;;;10407194;28;20710;-62
2024/01/21 01:39:32;;;;;;;5.00;2.97;;;4.00;75.90;;;;;;10405174;28;20222;-62
2024/01/21 01:44:40;;;;;;;3.70;2.63;;;4.00;77.70;;;;;;10405975;28;20201;-62
2024/01/21 01:49:44;;;;;;;4.97;2.97;;;4.00;78.10;;;;;;10400387;28;20332;-61
2024/01/21 01:54:49;;;;;;;4.73;2.90;;;4.00;78.60;;;;;;10407186;28;20202;-62
2024/01/21 01:59:54;;;;;;;4.80;2.83;;;4.00;77.00;;;;;;10405896;28;20220;-62
2024/01/21 02:05:00;;;;;;;6.60;2.80;;;4.00;79.90;;;;;;10407080;28;20206;-63
2024/01/21 02:10:04;;;;;;;3.87;2.80;;;4.00;77.70;;;;;;10399329;23;20784;-67
2024/01/21 02:15:10;;;;;;;4.60;2.87;;;4.00;81.90;;;;;;10352290;28;20746;-66
2024/01/21 02:20:13;;;;;;;4.30;3.10;;;4.00;78.90;;;;;;10364986;28;20220;-67
2024/01/21 02:25:18;;;;;;;4.53;3.37;;;4.00;81.00;;;;;;10372497;28;20787;-67
2024/01/21 02:30:22;;;;;;;5.00;3.30;;;4.00;76.00;;;;;;10373324;28;20292;-69
2024/01/21 02:35:26;;;;;;;4.97;3.33;;;4.00;79.30;;;;;;10374423;28;20248;-66
2024/01/21 02:40:31;;;;;;;4.47;3.13;;;4.00;79.30;;;;;;10375321;28;20668;-67
2024/01/21 02:45:35;;;;;;;4.07;3.17;;;4.00;77.90;;;;;;10368474;28;20234;-69
2024/01/21 02:50:38;;;;;;;5.07;3.53;;;4.00;79.90;;;;;;10360635;28;20255;-66
2024/01/21 02:55:43;;;;;;;4.60;3.13;;;4.00;80.10;;;;;;10359347;28;20743;-66
2024/01/21 03:00:47;;;;;;;4.90;3.47;;;4.00;78.00;;;;;;10364088;28;20264;-65
2024/01/21 03:05:51;;;;;;;5.33;3.50;;;4.00;80.20;;;;;;10357517;28;20938;-65
2024/01/21 03:10:56;;;;;;;4.30;3.30;;;4.10;79.00;;;;;;10352566;28;20269;-67
2024/01/21 03:16:00;;;;;;;5.30;3.93;;;4.00;77.50;;;;;;10362520;28;20314;-66
2024/01/21 03:21:04;;;;;;;3.53;3.13;;;4.00;76.50;;;;;;10361218;28;20307;-68
2024/01/21 03:26:09;;;;;;;5.17;3.77;;;4.00;75.20;;;;;;10357457;28;20194;-68
2024/01/21 03:31:13;;;;;;;5.17;3.43;;;4.00;76.20;;;;;;10355292;28;20249;-67
2024/01/21 03:36:17;;;;;;;5.43;3.67;;;4.00;75.60;;;;;;10356669;28;20296;-68
2024/01/21 03:41:22;;;;;;;6.50;3.93;;;4.00;76.10;;;;;;10360564;28;20908;-68
2024/01/21 03:46:25;;;;;;;5.63;3.83;;;4.00;77.20;;;;;;10351268;28;20224;-67
2024/01/21 03:51:29;;;;;;;4.90;3.70;;;4.00;76.30;;;;;;10359526;28;20235;-66
2024/01/21 03:56:34;;;;;;;5.50;4.03;;;4.00;76.20;;;;;;10350042;28;20636;-67
2024/01/21 04:01:43;;;;;;;3.77;2.90;;;3.90;75.50;;;;;;10356108;28;20228;-67
2024/01/21 04:06:47;;;;;;;4.37;3.40;;;3.90;75.90;;;;;;10354911;28;20232;-69
2024/01/21 04:11:52;;;;;;;5.17;3.63;;;3.90;75.90;;;;;;10360967;28;20230;-65
2024/01/21 04:16:55;;;;;;;5.13;3.57;;;3.90;74.90;;;;;;10359906;28;20249;-67
2024/01/21 04:22:00;;;;;;;4.90;3.13;;;3.90;73.90;;;;;;10359460;28;20257;-65
2024/01/21 04:27:06;;;;;;;4.10;3.30;;;3.90;72.50;;;;;;10362677;28;20565;-67
2024/01/21 04:32:09;;;;;;;4.63;3.17;;;3.90;73.90;;;;;;10358389;28;20306;-66
2024/01/21 04:37:13;;;;;;;6.20;3.00;;;3.90;74.90;;;;;;10361684;28;20250;-66
2024/01/21 04:42:18;;;;;;;4.60;2.73;;;3.90;75.70;;;;;;10368302;28;20221;-66
2024/01/21 04:47:22;;;;;;;4.17;2.97;;;3.90;72.20;;;;;;10366384;28;20770;-65
2024/01/21 04:52:27;;;;;;;4.13;2.90;;;3.90;74.00;;;;;;10362528;28;20225;-66
2024/01/21 04:57:32;;;;;;;3.60;2.90;;;3.90;75.90;;;;;;10363599;28;20314;-67
2024/01/21 05:02:36;;;;;;;4.20;2.90;;;3.90;72.70;;;;;;10356881;28;20318;-66
2024/01/21 05:07:40;;;;;;;5.33;2.93;;;3.90;75.40;;;;;;10357438;28;20311;-66
2024/01/21 05:12:45;;;;;;;2.60;2.33;;;4.00;74.50;;;;;;10362395;28;20224;-69
2024/01/21 05:17:52;;;;;;;2.53;2.20;;;4.00;76.00;;;;;;10370459;28;20254;-67
2024/01/21 05:22:56;;;;;;;4.43;3.13;;;4.00;75.40;;;;;;10367832;28;20306;-67
2024/01/21 05:28:00;;;;;;;4.63;3.03;;;4.00;75.90;;;;;;10359470;28;20317;-68
2024/01/21 05:33:05;;;;;;;4.67;3.00;;;4.00;74.40;;;;;;10368652;28;20590;-66
2024/01/21 05:38:09;;;;;;;4.23;3.27;;;4.00;72.10;;;;;;10363032;28;20270;-66
2024/01/21 05:43:14;;;;;;;4.83;2.77;;;4.00;74.90;;;;;;10365449;28;20229;-66
2024/01/21 05:48:17;;;;;;;4.07;2.77;;;4.00;74.80;;;;;;10367781;28;20229;-66
2024/01/21 05:53:21;;;;;;;4.27;2.80;;;4.10;75.00;;;;;;10369610;28;20231;-67
2024/01/21 05:58:27;;;;;;;3.30;2.70;;;4.10;76.90;;;;;;10355193;28;20761;-67
2024/01/21 06:03:30;;;;;;;3.53;2.67;;;4.10;72.60;;;;;;10354052;28;20236;-65
2024/01/21 06:08:34;;;;;;;4.13;3.00;;;4.00;72.30;;;;;;10358348;28;20311;-70
2024/01/21 06:13:40;;;;;;;4.33;3.20;;;4.00;74.20;;;;;;10368068;28;20209;-67
2024/01/21 06:18:44;;;;;;;3.93;2.73;;;4.10;72.60;;;;;;10375836;28;20236;-69
2024/01/21 06:23:50;;;;;;;3.47;2.70;;;4.10;74.40;;;;;;10371681;28;20232;-65
2024/01/21 06:28:55;;;;;;;4.37;2.90;;;4.10;76.80;;;;;;10362938;28;20252;-66
2024/01/21 06:33:59;;;;;;;4.80;3.30;;;4.10;72.70;;;;;;10362262;28;20549;-68
2024/01/21 06:39:04;;;;;;;4.87;3.20;;;4.10;73.30;;;;;;10360013;28;20304;-67
2024/01/21 06:44:08;;;;;;;4.97;3.27;;;4.10;75.10;;;;;;10363380;28;20234;-67
2024/01/21 06:49:12;;;;;;;4.70;3.20;;;4.10;72.30;;;;;;10365173;28;20326;-69
2024/01/21 06:54:16;;;;;;;6.03;3.20;;;4.10;73.10;;;;;;10361557;28;20233;-67
2024/01/21 06:59:21;;;;;;;6.47;3.57;;;4.10;73.20;;;;;;10365276;28;20300;-66
2024/01/21 07:04:25;;;;;;;5.13;3.57;;;4.20;73.80;;;;;;10359489;28;20225;-66
2024/01/21 07:09:29;;;;;;;5.33;3.47;;;4.20;74.60;;;;;;10364450;28;20314;-67
2024/01/21 07:14:34;;;;;;;5.57;3.73;;;4.20;75.20;;;;;;10362908;28;20200;-67
2024/01/21 07:19:38;;;;;;;4.20;3.30;;;4.20;73.60;;;;;;10379316;28;20227;-67
2024/01/21 07:24:42;;;;;;;5.77;4.17;;;4.20;73.00;;;;;;10367375;28;20308;-68
2024/01/21 07:29:48;;;;;;;5.97;4.23;;;4.20;70.60;;;;;;10360325;28;20278;-67
2024/01/21 07:34:52;;;;;;;6.43;4.30;;;4.20;73.10;;;;;;10363064;28;20680;-67
2024/01/21 07:39:55;;;;;;;6.17;4.17;;;4.20;73.60;;;;;;10367701;28;20248;-67
2024/01/21 07:45:00;;;;;;;7.53;4.47;;;4.20;72.50;;;;;;10369410;28;20270;-67
2024/01/21 07:50:07;;;;;;;6.80;4.37;;;4.20;71.70;;;;;;10361226;28;20758;-67
2024/01/21 07:55:13;;;;;;;7.87;5.50;;;4.30;71.70;;;;;;10354320;28;20533;-64
2024/01/21 08:00:28;;;;;;;6.43;5.20;;;4.30;66.20;;;;;;10359318;28;20704;-66
2024/01/21 08:05:34;;;;;;;7.00;5.53;;;4.40;70.00;;;;;;10362890;28;20251;-65
2024/01/21 08:10:38;;;;;;;6.50;5.27;;;4.30;71.70;;;;;;10350244;23;20312;-66
2024/01/21 08:15:43;;;;;;;5.60;4.80;;;4.30;69.90;;;;;;10290943;28;20675;-65
2024/01/21 08:20:47;;;;;;;7.60;6.63;;;4.30;71.90;;;;;;10278432;28;20250;-66
2024/01/21 08:25:51;;;;;;;7.50;5.27;;;4.30;71.40;;;;;;10277672;28;21234;-64
2024/01/21 08:30:55;;;;;;;9.33;5.00;;;4.30;71.50;;;;;;10285000;28;20305;-66
2024/01/21 08:35:59;;;;;;;7.43;4.83;;;4.30;70.80;;;;;;10282613;28;20209;-65
2024/01/21 08:41:03;;;;;;;6.40;4.60;;;4.30;70.00;;;;;;10283447;28;20280;-65
2024/01/21 08:46:11;;;;;;;6.63;4.53;;;4.40;70.10;;;;;;10285164;28;20236;-67
2024/01/21 08:51:15;;;;;;;7.10;4.97;;;4.40;69.70;;;;;;10279460;28;20260;-70
2024/01/21 08:56:18;;;;;;;6.70;5.43;;;4.40;67.30;;;;;;10284688;28;20202;-65
2024/01/21 09:01:24;;;;;;;6.87;5.13;;;4.40;67.30;;;;;;10284917;28;20289;-66
2024/01/21 09:06:27;;;;;;;6.97;5.23;;;4.40;66.30;;;;;;10283553;28;20250;-65
2024/01/21 09:11:33;;;;;;;7.27;4.53;;;4.40;68.00;;;;;;10278320;28;20322;-65
2024/01/21 09:16:38;;;;;;;6.40;5.10;;;4.50;65.70;;;;;;10280345;28;20230;-64
2024/01/21 09:21:41;;;;;;;7.37;5.60;;;4.50;68.30;;;;;;10279132;28;20278;-66
2024/01/21 09:26:45;;;;;;;7.70;5.70;;;4.50;67.70;;;;;;10271803;28;20262;-66
2024/01/21 09:31:59;;;;;;;7.63;5.67;;;4.50;68.40;;;;;;10280758;28;20269;-65
2024/01/21 09:37:03;;;;;;;8.77;6.13;;;4.60;64.90;;;;;;10279678;28;20203;-64
2024/01/21 09:42:08;;;;;;;7.93;5.40;;;4.60;66.20;;;;;;10274708;28;20239;-66
2024/01/21 09:47:14;;;;;;;7.93;5.50;;;4.70;67.60;;;;;;10273851;28;20330;-66
2024/01/21 09:52:19;;;;;;;8.27;5.47;;;4.80;66.10;;;;;;10278889;28;20306;-64
2024/01/21 09:57:23;;;;;;;10.40;6.70;;;4.80;64.30;;;;;;10270693;28;20230;-64
2024/01/21 10:02:32;;;;;;;9.07;6.50;;;4.80;68.40;;;;;;10280175;28;20774;-65
2024/01/21 10:07:37;;;;;;;7.47;5.83;;;4.80;66.60;;;;;;10273636;28;20279;-65
2024/01/21 10:12:42;;;;;;;9.17;5.63;;;4.90;67.30;;;;;;10286808;28;20258;-65
2024/01/21 10:17:47;;;;;;;8.73;6.47;;;4.90;70.20;;;;;;10283519;28;20232;-65
2024/01/21 10:22:51;;;;;;;9.57;5.23;;;5.10;68.00;;;;;;10286089;28;20249;-65
2024/01/21 10:27:54;;;;;;;8.10;6.17;;;5.20;67.40;;;;;;10285758;28;20231;-65
2024/01/21 10:33:00;;;;;;;9.30;7.07;;;5.30;67.90;;;;;;10286575;28;20264;-64
2024/01/21 10:38:06;;;;;;;7.57;5.63;;;5.30;69.90;;;;;;10280950;28;20232;-65
2024/01/21 10:43:15;;;;;;;7.90;5.73;;;5.40;67.30;;;;;;10256311;28;20323;-65
2024/01/21 10:48:21;;;;;;;9.23;5.30;;;5.40;68.20;;;;;;10261649;28;20690;-65
2024/01/21 10:53:26;;;;;;;6.80;5.07;;;5.30;68.00;;;;;;10279382;28;20630;-64
2024/01/21 10:58:33;;;;;;;7.70;5.10;;;5.40;68.30;;;;;;10288064;28;20256;-66
2024/01/21 11:03:39;;;;;;;6.53;4.83;;;5.40;67.90;;;;;;10294134;28;20774;-65
2024/01/21 11:08:44;;;;;;;8.57;6.10;;;5.40;69.50;;;;;;10290881;28;20276;-65
2024/01/21 11:13:48;;;;;;;8.20;5.70;;;5.50;69.60;;;;;;10288720;28;20209;-67
2024/01/21 11:18:53;;;;;;;8.40;5.60;;;5.50;68.90;;;;;;10284365;28;20212;-65
2024/01/21 11:24:03;;;;;;;8.73;6.03;;;5.50;69.10;;;;;;10286878;28;20209;-66
2024/01/21 11:29:23;;;;;;;6.23;5.10;;;5.50;68.80;;;;;;10289107;28;20235;-65
2024/01/21 11:34:36;;;;;;;7.73;5.23;;;5.50;68.70;;;;;;10287005;28;20628;-65
2024/01/21 11:39:39;;;;;;;8.63;5.57;;;5.60;70.00;;;;;;10292325;28;20279;-65
2024/01/21 11:44:43;;;;;;;8.27;5.80;;;5.60;71.60;;;;;;10290247;28;20208;-64
2024/01/21 11:49:48;;;;;;;8.03;5.77;;;5.50;72.30;;;;;;10288526;28;20225;-63
2024/01/21 11:54:54;;;;;;;8.77;6.13;;;5.50;72.60;;;;;;10284661;28;20745;-65
2024/01/21 11:59:58;;;;;;;8.75;7.65;;;5.50;73.60;;;;;;10285404;28;20513;-65
2024/01/21 12:05:03;;;;;;;8.00;6.17;;;5.70;73.60;;;;;;10296227;28;20268;-64
2024/01/21 12:10:09;;;;;;;12.20;7.30;;;5.80;73.90;;;;;;10291156;28;20253;-66
2024/01/21 12:15:13;;;;;;;14.33;10.07;;;5.80;75.00;;;;;;10291799;28;20660;-64
2024/01/21 12:20:18;;;;;;;11.20;7.77;;;5.80;74.90;;;;;;10290888;28;20598;-65
2024/01/21 12:25:24;;;;;;;12.00;7.40;;;5.70;75.20;;;;;;10285361;28;20205;-65
2024/01/21 12:30:27;;;;;;;12.13;7.90;;;5.70;75.50;;;;;;10293533;28;20247;-64
2024/01/21 12:35:33;;;;;;;9.03;7.33;;;5.70;75.30;;;;;;10288751;28;20270;-64
2024/01/21 12:40:45;;;;;;;10.53;7.17;;;5.70;77.00;;;;;;10287648;28;20288;-64
2024/01/21 12:45:49;;;;;;;9.50;7.17;;;5.70;76.90;;;;;;10287111;28;20200;-66
2024/01/21 12:50:56;;;;;;;10.47;6.40;;;5.70;77.60;;;;;;10289958;28;20230;-65
2024/01/21 12:56:06;;;;;;;8.30;6.40;;;5.70;77.20;;;;;;10287907;28;20225;-63
2024/01/21 13:01:17;;;;;;;10.47;7.13;;;5.80;77.80;;;;;;10289267;28;20747;-64
2024/01/21 13:06:26;;;;;;;7.73;6.17;;;5.80;76.70;;;;;;10288110;28;20284;-65
2024/01/21 13:11:32;;;;;;;8.40;6.43;;;5.80;78.10;;;;;;10287910;28;20229;-64
2024/01/21 13:16:40;;;;;;;8.30;6.03;;;5.90;78.40;;;;;;10287937;28;20209;-66
2024/01/21 13:21:45;;;;;;;9.03;6.60;;;6.00;77.30;;;;;;10286371;28;20276;-64
2024/01/21 13:26:52;;;;;;;7.67;6.43;;;5.90;76.90;;;;;;10285175;28;20565;-65
2024/01/21 13:31:56;;;;;;;9.30;6.97;;;6.00;78.70;;;;;;10288046;28;20284;-65
2024/01/21 13:37:01;;;;;;;10.30;6.73;;;6.00;79.30;;;;;;10287466;28;20208;-65
2024/01/21 13:42:05;;;;;;;8.87;6.60;;;5.90;77.20;;;;;;10286499;28;20209;-66
2024/01/21 13:47:08;;;;;;;10.77;6.83;;;5.90;77.90;;;;;;10286809;28;20752;-68
2024/01/21 13:52:19;;;;;;;12.23;7.13;;;5.90;78.70;;;;;;10285451;28;20229;-65
2024/01/21 13:57:25;;;;;;;9.40;7.13;;;5.90;78.20;;;;;;10283303;28;20216;-65
2024/01/21 14:02:29;;;;;;;10.60;7.20;;;6.00;79.50;;;;;;10281712;28;20635;-65
2024/01/21 14:07:41;;;;;;;10.73;7.50;;;6.00;79.70;;;;;;10285417;28;20264;-65
2024/01/21 14:12:45;;;;;;;9.43;6.80;;;6.00;78.60;;;;;;10282747;28;20367;-65
2024/01/21 14:17:51;;;;;;;10.90;7.90;;;6.00;79.40;;;;;;10277561;28;20201;-64
2024/01/21 14:22:56;;;;;;;10.43;7.20;;;6.00;80.20;;;;;;10278432;28;20221;-63
2024/01/21 14:27:59;;;;;;;9.33;7.53;;;6.00;81.00;;;;;;10287931;28;20785;-64
2024/01/21 14:33:04;;;;;;;10.57;7.83;;;6.00;79.50;;;;;;10287640;28;20229;-65
2024/01/21 14:38:10;;;;;;;10.57;7.77;;;6.00;80.40;;;;;;10290044;28;20210;-65
2024/01/21 14:43:14;;;;;;;10.63;7.50;;;6.10;80.40;;;;;;10287474;28;20261;-65
2024/01/21 14:48:17;;;;;;;11.20;6.80;;;6.10;81.30;;;;;;10289188;28;20209;-65
2024/01/21 14:53:23;;;;;;;9.83;7.20;;;6.10;81.00;;;;;;10288920;28;20588;-65
2024/01/21 14:58:27;;;;;;;10.07;7.20;;;6.00;80.60;;;;;;10287996;28;20260;-65
2024/01/21 15:03:30;;;;;;;9.33;6.50;;;6.00;80.60;;;;;;10291723;28;20254;-65
2024/01/21 15:08:35;;;;;;;8.43;6.97;;;6.00;81.30;;;;;;10292698;28;20275;-65
2024/01/21 15:13:44;;;;;;;11.07;7.30;;;6.00;81.80;;;;;;10287735;28;20225;-65
2024/01/21 15:18:48;;;;;;;9.00;6.07;;;6.00;81.90;;;;;;10289209;28;20263;-65
2024/01/21 15:23:53;;;;;;;11.10;6.47;;;6.00;82.40;;;;;;10290650;28;20205;-66
2024/01/21 15:28:56;;;;;;;9.40;6.67;;;5.90;81.90;;;;;;10285747;28;20241;-65
2024/01/21 15:34:00;;;;;;;7.83;6.47;;;6.00;82.80;;;;;;10286281;28;20711;-65
2024/01/21 15:39:06;;;;;;;8.73;7.10;;;6.00;82.40;;;;;;10280805;28;20743;-64
2024/01/21 15:44:10;;;;;;;8.70;6.17;;;6.00;82.40;;;;;;10286148;28;20205;-64
2024/01/21 15:49:14;;;;;;;7.20;5.97;;;6.00;82.40;;;;;;10284694;28;20754;-64
2024/01/21 15:54:19;;;;;;;9.00;6.67;;;6.00;82.60;;;;;;10281285;28;20251;-64
2024/01/21 15:59:23;;;;;;;9.50;6.30;;;6.00;85.20;;;;;;10280313;28;20237;-64
2024/01/21 16:04:26;;;;;;;9.03;6.77;;;6.00;85.10;;;;;;10282280;28;20201;-66
2024/01/21 16:09:31;;;;;;;7.87;6.03;;;6.00;84.40;;;;;;10285252;28;20232;-65
2024/01/21 16:14:35;;;;;;;8.93;5.90;;;6.00;85.60;;;;;;10287237;28;20247;-65
2024/01/21 16:19:38;;;;;;;9.40;6.40;;;6.00;85.60;;;;;;10283083;28;20299;-66
2024/01/21 16:24:44;;;;;;;9.43;6.60;;;5.90;85.20;;;;;;10279385;28;20221;-63
2024/01/21 16:29:48;;;;;;;9.90;6.93;;;5.90;85.20;;;;;;10283514;28;20249;-65
2024/01/21 16:34:52;;;;;;;8.73;6.67;;;5.90;85.30;;;;;;10276949;28;20261;-65
2024/01/21 16:40:07;;;;;;;12.07;6.57;;;5.90;86.00;;;;;;10280556;28;20225;-65
2024/01/21 16:45:17;;;;;;;9.13;6.20;;;5.90;85.40;;;;;;10281484;28;20286;-65
2024/01/21 16:50:21;;;;;;;9.87;6.47;;;5.90;85.70;;;;;;10279060;28;20229;-65
2024/01/21 16:55:26;;;;;;;9.97;6.60;;;5.80;86.60;;;;;;10281285;28;20229;-65
2024/01/21 17:00:32;;;;;;;7.93;6.60;;;5.80;86.10;;;;;;10282331;28;20261;-64
2024/01/21 17:05:36;;;;;;;9.00;6.53;;;5.90;86.80;;;;;;10280391;28;20256;-65
2024/01/21 17:10:46;;;;;;;9.50;6.50;;;5.90;88.50;;;;;;10278211;28;20328;-64
2024/01/21 17:15:50;;;;;;;9.50;6.10;;;5.90;87.50;;;;;;10278551;28;20256;-64
2024/01/21 17:20:54;;;;;;;7.67;6.33;;;5.90;88.00;;;;;;10273399;28;20284;-65
2024/01/21 17:26:00;;;;;;;8.67;6.70;;;5.90;89.80;;;;;;10271228;28;20225;-65
2024/01/21 17:31:04;;;;;;;8.37;6.43;;;5.90;89.30;;;;;;10276787;28;20227;-65
2024/01/21 17:36:08;;;;;;;9.43;8.43;;;5.90;88.90;;;;;;10283684;28;20481;-65
2024/01/21 17:41:13;;;;;;;8.07;6.43;;;6.10;90.30;;;;;;10275756;28;20306;-64
2024/01/21 17:46:18;;;;;;;9.40;6.97;;;6.10;89.40;;;;;;10281289;28;20209;-66
2024/01/21 17:51:22;;;;;;;8.17;6.97;;;6.10;89.60;;;;;;10284164;28;20230;-64
2024/01/21 17:56:29;;;;;;;11.17;7.03;;;6.10;89.80;;;;;;10279521;28;20204;-63
2024/01/21 18:01:33;;;;;;;11.30;7.70;;;6.10;89.10;;;;;;10278502;28;20293;-65
2024/01/21 18:06:37;;;;;;;10.17;6.47;;;6.10;89.40;;;;;;10289290;28;20753;-64
2024/01/21 18:11:44;;;;;;;9.30;6.47;;;6.10;90.20;;;;;;10285935;28;20233;-67
2024/01/21 18:16:52;;;;;;;9.13;7.07;;;6.10;90.10;;;;;;10289854;28;20228;-68
2024/01/21 18:22:01;;;;;;;14.37;8.60;;;6.10;90.30;;;;;;10288976;28;20704;-60
2024/01/21 18:27:06;;;;;;;14.03;8.57;;;6.10;90.70;;;;;;10282974;28;20256;-66
2024/01/21 18:32:17;;;;;;;10.03;6.93;;;6.10;90.30;;;;;;10282672;28;20296;-65
2024/01/21 18:37:24;;;;;;;10.73;6.73;;;6.10;90.30;;;;;;10281837;28;20237;-65
2024/01/21 18:42:35;;;;;;;9.80;6.90;;;6.10;90.50;;;;;;10280767;28;20297;-64
2024/01/21 18:47:46;;;;;;;10.87;7.00;;;6.10;90.50;;;;;;10281863;28;20275;-64
2024/01/21 18:52:53;;;;;;;11.27;6.00;;;6.10;90.60;;;;;;10280450;28;20327;-64
2024/01/21 18:58:05;;;;;;;9.47;7.00;;;6.20;90.80;;;;;;10280241;28;20210;-65
2024/01/21 19:03:14;;;;;;;7.90;5.70;;;6.20;90.50;;;;;;10284353;28;20255;-62
2024/01/21 19:08:18;;;;;;;8.67;5.73;;;6.20;90.90;;;;;;10284466;28;20214;-64
2024/01/21 19:13:28;;;;;;;10.00;5.57;;;6.20;91.10;;;;;;10280180;28;20250;-63
2024/01/21 19:18:35;;;;;;;8.47;5.30;;;6.30;91.50;;;;;;10286201;28;20205;-62
2024/01/21 19:23:41;;;;;;;7.17;5.60;;;6.30;91.50;;;;;;10284062;28;20288;-65
2024/01/21 19:28:53;;;;;;;9.17;5.77;;;6.30;91.70;;;;;;10281073;28;20265;-63
2024/01/21 19:33:57;;;;;;;8.50;5.23;;;6.30;91.20;;;;;;10286983;28;20230;-63
2024/01/21 19:39:01;;;;;;;8.03;5.87;;;6.30;91.70;;;;;;10282942;28;20229;-64
2024/01/21 19:44:06;;;;;;;8.87;5.47;;;6.30;91.50;;;;;;10281335;28;20206;-64
2024/01/21 19:49:15;;;;;;;7.57;5.20;;;6.40;91.40;;;;;;10290994;28;20276;-64
2024/01/21 19:54:21;;;;;;;7.87;6.30;;;6.40;91.60;;;;;;10303537;28;20490;-64
2024/01/21 19:59:31;;;;;;;9.07;4.93;;;6.40;91.90;;;;;;10290063;28;20221;-65
2024/01/21 20:04:40;;;;;;;7.63;5.10;;;6.40;91.80;;;;;;10280233;28;20205;-66
2024/01/21 20:09:45;;;;;;;8.10;4.63;;;6.40;92.10;;;;;;10289749;28;20795;-64
2024/01/21 20:14:50;;;;;;;6.30;4.10;;;6.40;91.90;;;;;;10285798;28;20280;-65
2024/01/21 20:19:57;;;;;;;6.97;3.90;;;6.40;91.70;;;;;;10287180;28;20276;-64
2024/01/21 20:25:02;;;;;;;6.97;4.07;;;6.40;91.80;;;;;;10285996;28;20213;-66
2024/01/21 20:30:14;;;;;;;7.93;3.83;;;6.40;91.60;;;;;;10275963;28;20233;-65
2024/01/21 20:35:21;;;;;;;7.67;4.10;;;6.40;92.10;;;;;;10284868;28;20271;-63
2024/01/21 20:40:26;;;;;;;7.60;4.13;;;6.40;92.30;;;;;;10286509;28;20225;-65
2024/01/21 20:45:37;;;;;;;6.53;3.97;;;6.40;92.20;;;;;;10286471;28;20261;-64
2024/01/21 20:50:44;;;;;;;6.00;3.73;;;6.40;92.10;;;;;;10285091;28;20226;-64
2024/01/21 20:55:47;;;;;;;7.07;3.43;;;6.50;92.20;;;;;;10284671;28;20252;-67
2024/01/21 21:00:52;;;;;;;7.03;3.47;;;6.50;92.30;;;;;;10282101;28;20287;-65
2024/01/21 21:06:12;;;;;;;8.20;4.00;;;6.50;92.30;;;;;;10277433;28;20229;-63
2024/01/21 21:11:15;;;;;;;6.40;3.80;;;6.50;92.90;;;;;;10283765;28;20237;-66
2024/01/21 21:16:20;;;;;;;5.90;3.60;;;6.60;92.70;;;;;;10277271;28;20226;-62
2024/01/21 21:21:28;;;;;;;5.13;3.47;;;6.60;92.70;;;;;;10280915;28;20288;-65
2024/01/21 21:26:34;;;;;;;6.77;3.90;;;6.60;92.70;;;;;;10271172;28;20891;-63
2024/01/21 21:31:42;;;;;;;5.20;3.30;;;6.60;92.60;;;;;;10276451;28;20280;-65
2024/01/21 21:36:46;;;;;;;6.80;3.40;;;6.60;93.20;;;;;;10229249;28;20264;-65
2024/01/21 21:41:53;;;;;;;6.73;3.40;;;6.60;92.90;;;;;;10280523;28;20711;-62
2024/01/21 21:46:58;;;;;;;4.97;3.43;;;6.60;93.20;;;;;;10278057;28;20598;-64
2024/01/21 21:52:04;;;;;;;6.97;3.43;;;6.70;93.30;;;;;;10284567;28;20229;-65
2024/01/21 21:57:22;;;;;;;5.60;3.20;;;6.70;93.10;;;;;;10280893;28;20237;-64
2024/01/21 22:02:28;;;;;;;8.30;3.47;;;6.70;93.30;;;;;;10281994;28;20786;-65
2024/01/21 22:07:35;;;;;;;5.60;2.87;;;6.80;93.50;;;;;;10281664;28;20206;-64
2024/01/21 22:12:38;;;;;;;5.00;2.60;;;6.80;93.50;;;;;;10281818;28;20292;-65
2024/01/21 22:17:44;;;;;;;7.57;2.90;;;6.80;93.70;;;;;;10278166;28;20284;-65
2024/01/21 22:22:49;;;;;;;8.20;3.20;;;6.80;93.40;;;;;;10286642;28;20284;-65
2024/01/21 22:27:52;;;;;;;7.27;3.73;;;6.80;93.70;;;;;;10276287;28;20224;-64
2024/01/21 22:33:37;;;;;;;7.40;3.03;;;6.80;93.80;;;;;;10702990;23;20227;-62
2024/01/21 22:38:54;;;;;;;7.40;4.03;;;6.90;93.50;;;;;;10440644;28;20195;-61
2024/01/21 22:43:58;;;;;;;7.33;4.10;;;6.90;93.40;;;;;;10439865;28;20245;-62
2024/01/21 22:49:03;;;;;;;6.07;2.73;;;6.90;93.60;;;;;;10444592;28;20229;-64
2024/01/21 22:54:07;;;;;;;12.90;6.60;;;7.00;93.90;;;;;;10445761;28;20689;-65
2024/01/21 22:59:11;;;;;;;28.30;11.40;;;7.00;93.90;;;;;;10447201;28;20234;-64
2024/01/21 23:04:16;;;;;;;13.83;6.00;;;7.00;94.30;;;;;;10449430;28;20246;-61
2024/01/21 23:09:19;;;;;;;7.20;3.90;;;7.10;94.40;;;;;;10448112;28;20207;-63
2024/01/21 23:14:23;;;;;;;6.77;3.37;;;7.10;94.40;;;;;;10445447;28;20721;-65
2024/01/21 23:19:28;;;;;;;6.30;2.90;;;7.20;94.00;;;;;;10446561;28;20233;-64
2024/01/21 23:24:31;;;;;;;7.73;3.33;;;7.20;94.40;;;;;;10439949;28;20713;-64
2024/01/21 23:29:35;;;;;;;4.20;2.30;;;7.30;94.30;;;;;;10443514;28;20292;-65
2024/01/21 23:34:40;;;;;;;4.13;2.63;;;7.30;94.30;;;;;;10443017;28;20307;-65
2024/01/21 23:39:44;;;;;;;4.00;2.50;;;7.30;94.60;;;;;;10445330;28;20261;-65
2024/01/21 23:44:48;;;;;;;5.13;3.37;;;7.30;94.50;;;;;;10444768;28;20251;-63
2024/01/21 23:49:53;;;;;;;4.47;2.60;;;7.30;94.10;;;;;;10444942;28;20203;-64
2024/01/21 23:54:57;;;;;;;4.63;2.60;;;7.40;94.70;;;;;;10443728;28;20618;-65
